Time;durP1;ratioP1;P1;durP2;ratioP2;P2;SDS_P1;SDS_P2;PMS_P1;PMS_P2;Temp;Humidity;BMP_temperature;BMP_pressure;BME280_temperature;BME280_humidity;BME280_pressure;Samples;Min_cycle;Max_cycle;Signal;HPM_P1;HPM_P2
2022/02/09 00:00:45;;;;;;;2.28;1.80;;;7.50;99.90;;;;;;5076719;28;20235;-72
2022/02/09 00:03:16;;;;;;;2.72;2.25;;;7.50;99.90;;;;;;5077149;28;20196;-72
2022/02/09 00:08:10;;;;;;;2.28;1.90;;;7.50;99.90;;;;;;5076488;28;20204;-72
2022/02/09 00:10:39;;;;;;;3.85;1.85;;;7.50;99.90;;;;;;5076369;28;20200;-72
2022/02/09 00:19:07;;;;;;;3.05;2.05;;;7.60;99.90;;;;;;5043682;28;20207;-72
2022/02/09 00:30:08;;;;;;;1.85;1.75;;;7.60;99.90;;;;;;5076125;28;20701;-72
2022/02/09 00:37:27;;;;;;;3.45;2.20;;;7.60;99.90;;;;;;5075475;28;20181;-73
2022/02/09 00:43:02;;;;;;;1.75;1.65;;;7.60;99.90;;;;;;5075841;28;20187;-72
2022/02/09 01:44:16;;;;;;;1.70;1.60;;;7.30;99.90;;;;;;5052893;28;20185;-72
2022/02/09 01:57:09;;;;;;;2.33;2.05;;;7.30;99.90;;;;;;5073868;28;20180;-72
2022/02/09 01:59:37;;;;;;;2.83;2.33;;;7.30;99.90;;;;;;5073808;28;20207;-72
2022/02/09 02:02:05;;;;;;;2.40;1.77;;;7.30;99.90;;;;;;5074742;28;20318;-72
2022/02/09 02:04:32;;;;;;;2.38;1.95;;;7.30;99.90;;;;;;5074366;28;20663;-72
2022/02/09 02:07:01;;;;;;;2.05;1.90;;;7.30;99.90;;;;;;5074625;28;20310;-72
2022/02/09 02:09:32;;;;;;;2.70;2.15;;;7.30;99.90;;;;;;5074599;28;20229;-71
2022/02/09 02:12:09;;;;;;;3.50;1.83;;;7.20;99.90;;;;;;5072273;28;20203;-72
2022/02/09 02:14:44;;;;;;;4.45;1.95;;;7.20;99.90;;;;;;5074770;28;20577;-72
2022/02/09 02:25:06;;;;;;;2.35;2.15;;;7.20;99.90;;;;;;5073506;28;20183;-72
2022/02/09 02:36:17;;;;;;;2.05;1.85;;;7.30;99.90;;;;;;5074044;28;20184;-73
2022/02/09 02:38:59;;;;;;;2.08;1.98;;;7.30;99.90;;;;;;5073694;28;20674;-73
2022/02/09 03:11:10;;;;;;;4.53;3.95;;;7.20;99.90;;;;;;5073912;28;20723;-72
2022/02/09 03:13:41;;;;;;;5.03;4.53;;;7.20;99.90;;;;;;5073431;28;20215;-73
2022/02/09 03:16:12;;;;;;;3.25;2.53;;;7.20;99.90;;;;;;5074491;28;20200;-72
2022/02/09 03:23:54;;;;;;;2.67;2.47;;;7.20;99.90;;;;;;5076491;28;20253;-72
2022/02/09 03:56:26;;;;;;;3.90;3.50;;;7.30;99.90;;;;;;5076833;28;20184;-72
2022/02/09 03:58:53;;;;;;;2.95;2.00;;;7.30;99.90;;;;;;5077485;28;20204;-72
2022/02/09 04:01:22;;;;;;;4.32;2.63;;;7.30;99.90;;;;;;5077369;28;20235;-73
2022/02/09 04:03:49;;;;;;;4.93;4.55;;;7.30;99.90;;;;;;5077447;28;20606;-72
2022/02/09 04:06:15;;;;;;;7.85;7.00;;;7.20;99.90;;;;;;5077013;28;20239;-72
2022/02/09 04:08:52;;;;;;;9.35;8.45;;;7.20;99.90;;;;;;5076737;28;20198;-72
2022/02/09 04:11:28;;;;;;;5.10;4.70;;;7.30;99.90;;;;;;5075270;28;20260;-72
2022/02/09 04:38:12;;;;;;;7.28;2.60;;;7.20;99.90;;;;;;5077436;28;20184;-72
2022/02/09 04:43:39;;;;;;;5.25;3.67;;;7.20;99.90;;;;;;5076586;28;20271;-72
2022/02/09 04:49:34;;;;;;;6.05;3.20;;;7.20;99.90;;;;;;5076884;28;20238;-72
2022/02/09 04:51:28;;;;;;;5.13;4.03;;;7.20;99.90;;;;;;5072816;28;20210;-72
2022/02/09 04:56:47;;;;;;;5.43;3.70;;;7.20;99.90;;;;;;5077661;28;20184;-72
2022/02/09 05:02:38;;;;;;;9.38;5.53;;;7.20;99.90;;;;;;5076991;28;20232;-72
2022/02/09 05:05:24;;;;;;;9.50;5.80;;;7.20;99.90;;;;;;5076286;28;20200;-71
2022/02/09 05:22:00;;;;;;;10.73;7.57;;;7.20;99.90;;;;;;5038882;28;20219;-71
2022/02/09 05:27:15;;;;;;;12.98;7.82;;;7.20;99.90;;;;;;5077038;28;20179;-72
2022/02/09 05:29:41;;;;;;;13.50;8.80;;;7.10;99.90;;;;;;5076684;28;20231;-71
2022/02/09 05:32:08;;;;;;;13.40;9.05;;;7.10;99.90;;;;;;5076636;28;20226;-72
2022/02/09 05:34:35;;;;;;;11.43;9.23;;;7.10;99.90;;;;;;5076226;28;20203;-72
2022/02/09 05:37:01;;;;;;;12.68;8.82;;;7.10;99.90;;;;;;5076132;28;20195;-72
2022/02/09 05:39:28;;;;;;;12.68;9.63;;;7.10;99.90;;;;;;5075137;28;20196;-72
2022/02/09 05:41:55;;;;;;;16.27;9.23;;;7.10;99.90;;;;;;5076211;28;20223;-72
2022/02/09 05:44:23;;;;;;;17.95;10.02;;;7.10;99.90;;;;;;5075849;28;20207;-72
2022/02/09 05:51:53;;;;;;;13.88;11.68;;;7.10;99.90;;;;;;5076732;28;20192;-72
2022/02/09 05:59:47;;;;;;;13.07;11.10;;;7.00;99.90;;;;;;5075103;28;20195;-73
2022/02/09 06:02:16;;;;;;;17.33;12.52;;;7.00;99.90;;;;;;5075271;28;20243;-73
2022/02/09 06:04:43;;;;;;;14.88;11.98;;;7.00;99.90;;;;;;5075188;28;20204;-73
2022/02/09 06:07:10;;;;;;;16.33;12.27;;;7.00;99.90;;;;;;5075209;28;20254;-73
2022/02/09 06:09:38;;;;;;;16.50;11.35;;;6.90;99.90;;;;;;5076182;28;20707;-73
2022/02/09 06:12:13;;;;;;;21.08;12.40;;;6.90;99.90;;;;;;5075110;28;20200;-72
2022/02/09 06:20:10;;;;;;;19.63;12.68;;;6.80;99.90;;;;;;5075936;28;20195;-73
2022/02/09 06:22:36;;;;;;;19.00;11.52;;;6.80;99.90;;;;;;5075417;28;20215;-72
2022/02/09 06:25:03;;;;;;;16.25;11.98;;;6.80;99.90;;;;;;5074011;28;20678;-72
2022/02/09 06:27:29;;;;;;;13.30;11.88;;;6.80;99.90;;;;;;5075420;28;20225;-72
2022/02/09 06:29:56;;;;;;;14.40;12.15;;;6.70;99.90;;;;;;5075022;28;20207;-73
2022/02/09 06:32:22;;;;;;;16.42;11.25;;;6.70;99.90;;;;;;5075358;28;20207;-73
2022/02/09 06:34:50;;;;;;;14.07;11.80;;;6.70;99.90;;;;;;5074920;28;20200;-72
2022/02/09 06:37:37;;;;;;;17.85;11.25;;;6.60;99.90;;;;;;5075961;28;20219;-72
2022/02/09 06:40:05;;;;;;;20.42;12.20;;;6.60;99.90;;;;;;5075411;28;20663;-72
2022/02/09 06:42:33;;;;;;;19.05;10.98;;;6.50;99.90;;;;;;5075432;28;20226;-73
2022/02/09 06:45:07;;;;;;;18.02;12.35;;;6.50;99.90;;;;;;5075901;28;20218;-72
2022/02/09 06:47:36;;;;;;;16.48;10.80;;;6.40;99.90;;;;;;5074074;28;20192;-72
2022/02/09 06:50:07;;;;;;;20.40;10.68;;;6.40;99.90;;;;;;5075077;28;20230;-73
2022/02/09 06:52:40;;;;;;;18.95;10.90;;;6.40;99.90;;;;;;5076124;28;20185;-74
2022/02/09 06:57:57;;;;;;;16.48;10.32;;;6.30;99.90;;;;;;5075909;28;20553;-75
2022/02/09 07:00:22;;;;;;;17.05;11.15;;;6.30;99.90;;;;;;5079245;28;20228;-75
2022/02/09 07:02:50;;;;;;;17.13;10.75;;;6.30;99.90;;;;;;5078006;28;20208;-75
2022/02/09 07:05:17;;;;;;;14.80;9.75;;;6.20;99.90;;;;;;5077656;28;20578;-74
2022/02/09 07:07:44;;;;;;;16.85;11.95;;;6.20;99.90;;;;;;5079044;28;20227;-74
2022/02/09 07:10:11;;;;;;;14.40;9.63;;;6.20;99.90;;;;;;5079540;28;20214;-74
2022/02/09 07:12:38;;;;;;;10.65;8.98;;;6.20;99.90;;;;;;5078799;28;20204;-74
2022/02/09 07:15:08;;;;;;;19.10;10.10;;;6.20;99.90;;;;;;5078667;28;20210;-74
2022/02/09 07:17:34;;;;;;;14.35;10.20;;;6.20;99.90;;;;;;5078959;28;20215;-73
2022/02/09 07:20:24;;;;;;;16.00;8.52;;;6.20;99.90;;;;;;5077727;28;20204;-74
2022/02/09 07:22:54;;;;;;;24.05;11.10;;;6.20;99.90;;;;;;5077296;28;20227;-74
2022/02/09 07:25:30;;;;;;;16.20;9.80;;;6.20;99.90;;;;;;5078505;28;20674;-74
2022/02/09 07:27:57;;;;;;;12.35;8.93;;;6.20;99.90;;;;;;5077763;28;20214;-74
2022/02/09 07:30:27;;;;;;;16.13;9.30;;;6.20;99.90;;;;;;5078939;28;20204;-74
2022/02/09 07:32:55;;;;;;;20.27;9.55;;;6.10;99.90;;;;;;5079095;28;20196;-74
2022/02/09 07:35:22;;;;;;;27.38;8.38;;;6.10;99.90;;;;;;5078704;28;20210;-74
2022/02/09 07:37:49;;;;;;;13.57;8.90;;;6.10;99.90;;;;;;5079253;28;20199;-74
2022/02/09 07:40:18;;;;;;;11.43;8.15;;;6.10;99.90;;;;;;5078117;28;20687;-74
2022/02/09 07:42:49;;;;;;;14.30;9.10;;;6.10;99.90;;;;;;5077222;28;20220;-74
2022/02/09 07:51:01;;;;;;;18.05;8.85;;;6.20;99.90;;;;;;5069386;28;20199;-73
2022/02/09 07:53:37;;;;;;;17.15;9.30;;;6.30;99.90;;;;;;5078150;28;20180;-75
2022/02/09 07:56:04;;;;;;;16.25;8.68;;;6.30;99.90;;;;;;5078438;28;20199;-75
2022/02/09 07:58:31;;;;;;;12.65;9.40;;;6.30;99.90;;;;;;5078079;28;20207;-75
2022/02/09 08:00:57;;;;;;;18.98;10.32;;;6.30;99.90;;;;;;5078497;28;20236;-74
2022/02/09 08:03:23;;;;;;;16.05;10.30;;;6.20;99.90;;;;;;5078043;28;20207;-75
2022/02/09 08:05:50;;;;;;;10.25;8.13;;;6.20;99.90;;;;;;5077625;28;20263;-76
2022/02/09 08:08:17;;;;;;;15.15;9.93;;;6.20;99.90;;;;;;5077418;28;20211;-74
2022/02/09 08:10:48;;;;;;;14.65;10.32;;;6.20;99.90;;;;;;5076035;28;20195;-74
2022/02/09 08:29:05;;;;;;;15.90;11.88;;;6.30;99.90;;;;;;5078325;28;20651;-73
2022/02/09 08:34:17;;;;;;;15.30;11.48;;;6.30;99.90;;;;;;5079542;28;20263;-74
2022/02/09 08:36:44;;;;;;;20.35;12.18;;;6.30;99.90;;;;;;5078932;28;20667;-73
2022/02/09 08:39:11;;;;;;;18.10;12.25;;;6.40;99.90;;;;;;5079022;28;20207;-74
2022/02/09 08:41:37;;;;;;;18.58;11.15;;;6.40;99.90;;;;;;5078988;28;20226;-74
2022/02/09 08:44:04;;;;;;;17.25;11.35;;;6.50;99.90;;;;;;5077808;28;20204;-74
2022/02/09 08:46:31;;;;;;;18.17;9.90;;;6.50;99.90;;;;;;5076716;28;20200;-77
2022/02/09 08:48:57;;;;;;;15.05;10.32;;;6.50;99.90;;;;;;5076760;28;20200;-74
2022/02/09 08:51:26;;;;;;;20.17;11.43;;;6.60;99.90;;;;;;5076136;28;20680;-74
2022/02/09 08:53:52;;;;;;;16.88;10.30;;;6.70;99.90;;;;;;5076760;28;20199;-74
2022/02/09 08:56:19;;;;;;;18.45;10.40;;;6.70;99.90;;;;;;5077596;28;20204;-74
2022/02/09 08:58:46;;;;;;;13.43;9.73;;;6.70;99.90;;;;;;5078102;28;20286;-74
2022/02/09 09:01:29;;;;;;;13.70;9.35;;;6.80;99.90;;;;;;5078699;28;20621;-74
2022/02/09 09:03:58;;;;;;;16.90;9.38;;;6.90;99.90;;;;;;5079734;28;20196;-74
2022/02/09 09:06:27;;;;;;;11.95;7.85;;;7.00;99.90;;;;;;5079094;28;20311;-74
2022/02/09 09:31:23;;;;;;;14.95;8.38;;;7.10;99.90;;;;;;5054834;28;20675;-75
2022/02/09 09:58:12;;;;;;;17.92;8.20;;;8.00;99.90;;;;;;5076428;28;20180;-75
2022/02/09 10:01:42;;;;;;;14.23;7.90;;;8.10;99.90;;;;;;5075231;28;20318;-75
2022/02/09 10:32:51;;;;;;;12.48;6.60;;;8.90;99.90;;;;;;5076374;28;20671;-75
2022/02/09 10:35:29;;;;;;;9.40;6.20;;;9.00;99.90;;;;;;5077988;28;20200;-74
2022/02/09 10:38:00;;;;;;;11.60;6.90;;;9.10;99.90;;;;;;5076521;28;20203;-74
2022/02/09 10:40:33;;;;;;;10.32;6.32;;;9.10;99.90;;;;;;5077801;28;20180;-74
2022/02/09 10:43:04;;;;;;;12.30;6.70;;;9.10;99.90;;;;;;5076456;28;20208;-74
2022/02/09 10:45:38;;;;;;;9.38;6.30;;;9.20;99.90;;;;;;5058503;28;20249;-74
2022/02/09 10:48:26;;;;;;;13.82;6.38;;;9.40;99.90;;;;;;5075187;28;20187;-75
2022/02/09 10:50:52;;;;;;;6.20;5.60;;;9.60;99.90;;;;;;5075362;28;20271;-75
2022/02/09 10:53:20;;;;;;;13.00;7.80;;;9.70;99.90;;;;;;5074564;28;20203;-73
2022/02/09 10:55:46;;;;;;;8.30;5.55;;;9.60;99.90;;;;;;5074453;28;20682;-74
2022/02/09 10:58:16;;;;;;;8.82;5.65;;;9.70;99.90;;;;;;5074403;28;20599;-74
2022/02/09 11:00:45;;;;;;;7.60;5.70;;;9.60;99.90;;;;;;5074346;28;20727;-74
2022/02/09 11:03:20;;;;;;;15.07;6.95;;;9.80;99.90;;;;;;5075125;28;20219;-74
2022/02/09 11:05:49;;;;;;;11.32;6.50;;;9.90;99.90;;;;;;5074956;28;20176;-74
2022/02/09 11:08:17;;;;;;;13.82;6.07;;;10.00;99.90;;;;;;5073026;28;20682;-74
2022/02/09 11:10:44;;;;;;;9.43;5.55;;;10.40;99.90;;;;;;5075609;28;20203;-74
2022/02/09 11:13:11;;;;;;;6.88;5.43;;;10.50;99.90;;;;;;5076923;28;20645;-74
2022/02/09 11:15:40;;;;;;;16.85;8.85;;;11.10;99.90;;;;;;5077555;28;20200;-74
2022/02/09 11:18:15;;;;;;;9.83;6.13;;;11.30;99.90;;;;;;5077874;28;20204;-74
2022/02/09 11:20:57;;;;;;;13.43;6.13;;;11.40;99.90;;;;;;5078136;28;20582;-74
2022/02/09 11:23:48;;;;;;;6.90;5.40;;;11.40;99.90;;;;;;5077769;28;20691;-74
2022/02/09 11:26:28;;;;;;;7.20;4.97;;;11.60;99.90;;;;;;5077540;28;20629;-74
2022/02/09 11:29:24;;;;;;;7.70;5.67;;;11.50;99.90;;;;;;5076749;28;20596;-74
2022/02/09 11:32:17;;;;;;;7.33;5.30;;;11.70;99.90;;;;;;5074648;28;20573;-73
2022/02/09 11:37:31;;;;;;;9.63;6.00;;;12.10;99.90;;;;;;5074393;28;20613;-73
2022/02/09 11:40:18;;;;;;;7.17;5.73;;;12.20;99.90;;;;;;5074254;28;20683;-73
2022/02/09 11:42:51;;;;;;;11.73;7.00;;;11.90;99.90;;;;;;5073736;28;20665;-74
2022/02/09 11:45:36;;;;;;;14.50;6.80;;;11.90;99.90;;;;;;5075413;28;20629;-73
2022/02/09 11:48:34;;;;;;;6.63;6.00;;;12.60;99.90;;;;;;5076026;28;20614;-73
2022/02/09 11:51:33;;;;;;;11.77;5.90;;;12.30;99.90;;;;;;5077123;28;20963;-72
2022/02/09 12:10:52;;;;;;;15.40;7.37;;;12.80;99.90;;;;;;5078340;28;21133;-73
2022/02/09 12:13:52;;;;;;;15.70;6.63;;;12.90;99.90;;;;;;5077367;28;20634;-72
2022/02/09 12:19:14;;;;;;;11.80;7.07;;;13.40;99.90;;;;;;5077014;28;20567;-73
2022/02/09 12:24:35;;;;;;;9.03;6.60;;;13.30;99.90;;;;;;5076696;28;20574;-72
2022/02/09 12:27:10;;;;;;;9.43;6.37;;;13.80;99.90;;;;;;5077487;28;20746;-71
2022/02/09 12:29:42;;;;;;;9.13;7.80;;;14.00;99.90;;;;;;5076796;28;20705;-72
2022/02/09 12:32:14;;;;;;;10.17;6.10;;;13.50;99.90;;;;;;5077747;28;20582;-71
2022/02/09 12:34:59;;;;;;;16.33;11.53;;;13.90;99.90;;;;;;5078405;28;20606;-72
2022/02/09 12:37:29;;;;;;;9.27;6.47;;;14.30;99.90;;;;;;5078032;28;20644;-72
2022/02/09 12:40:00;;;;;;;11.67;7.90;;;13.90;99.90;;;;;;5078246;28;20713;-72
2022/02/09 12:42:33;;;;;;;13.63;6.60;;;13.90;99.90;;;;;;5078445;28;20665;-73
2022/02/09 12:45:02;;;;;;;14.20;6.67;;;13.50;99.90;;;;;;5076568;28;20708;-73
2022/02/09 12:47:37;;;;;;;7.43;5.73;;;13.30;99.90;;;;;;5078133;28;21150;-73
2022/02/09 12:50:08;;;;;;;10.87;9.67;;;13.90;99.90;;;;;;5077794;28;20581;-73
2022/02/09 12:52:36;;;;;;;19.03;14.37;;;13.80;99.90;;;;;;5078219;28;20744;-73
2022/02/09 12:55:17;;;;;;;12.37;7.80;;;14.50;99.90;;;;;;5077274;28;20611;-72
2022/02/09 12:57:53;;;;;;;54.67;37.00;;;14.60;99.90;;;;;;5077497;28;20579;-72
2022/02/09 13:00:50;;;;;;;7.10;5.30;;;14.70;99.90;;;;;;5076534;28;20657;-73
2022/02/09 13:03:22;;;;;;;11.50;5.90;;;14.40;99.90;;;;;;5075726;28;20670;-73
2022/02/09 13:05:56;;;;;;;10.93;6.33;;;14.70;99.90;;;;;;5076981;28;20741;-73
2022/02/09 13:08:26;;;;;;;14.30;10.57;;;14.80;99.90;;;;;;5077912;28;20728;-72
2022/02/09 13:11:17;;;;;;;8.90;6.80;;;14.70;99.90;;;;;;5076357;28;20619;-72
2022/02/09 13:13:54;;;;;;;8.50;6.30;;;15.30;99.90;;;;;;5077109;28;20717;-71
2022/02/09 13:16:57;;;;;;;5.73;5.33;;;15.20;99.90;;;;;;5077890;28;20984;-71
2022/02/09 13:25:23;;;;;;;7.40;6.40;;;15.00;99.90;;;;;;5076928;28;20587;-71
2022/02/09 14:07:53;;;;;;;14.73;5.97;;;16.70;99.90;;;;;;5050719;28;20639;-72
2022/02/09 14:10:46;;;;;;;7.57;6.37;;;16.10;99.90;;;;;;5051609;28;20635;-72
2022/02/09 14:53:44;;;;;;;6.30;5.80;;;15.70;99.90;;;;;;5073991;28;20629;-72
2022/02/09 14:56:20;;;;;;;5.97;5.57;;;15.70;99.90;;;;;;5074272;28;20618;-72
2022/02/09 14:58:54;;;;;;;6.57;5.97;;;15.70;99.90;;;;;;5074212;28;20578;-71
2022/02/09 15:01:32;;;;;;;6.73;6.13;;;15.80;99.90;;;;;;5073831;28;20658;-71
2022/02/09 15:04:18;;;;;;;6.00;5.50;;;15.50;99.90;;;;;;5074531;28;20722;-72
2022/02/09 15:06:57;;;;;;;6.33;5.50;;;15.80;99.90;;;;;;5073878;28;20650;-73
2022/02/09 15:12:16;;;;;;;5.60;5.13;;;15.80;99.90;;;;;;5072929;28;20585;-72
2022/02/09 15:20:13;;;;;;;7.13;6.40;;;15.60;99.90;;;;;;5076815;28;20618;-72
2022/02/09 15:22:42;;;;;;;8.23;5.70;;;15.70;99.90;;;;;;5077010;28;20636;-72
2022/02/09 15:25:21;;;;;;;7.07;5.53;;;15.90;99.90;;;;;;5078089;28;20614;-72
2022/02/09 15:27:53;;;;;;;6.83;5.90;;;15.70;99.90;;;;;;5077684;28;20618;-72
2022/02/09 15:30:20;;;;;;;6.37;5.93;;;15.50;99.90;;;;;;5076145;28;20613;-72
2022/02/09 15:32:51;;;;;;;5.93;5.30;;;15.20;99.90;;;;;;5077804;28;20614;-73
2022/02/09 15:35:38;;;;;;;6.03;5.53;;;14.90;99.90;;;;;;5076487;28;20614;-72
2022/02/09 15:38:16;;;;;;;6.43;5.67;;;14.50;99.90;;;;;;5077670;28;21121;-72
2022/02/09 15:57:28;;;;;;;4.33;3.60;;;13.30;99.90;;;;;;5077482;28;20573;-72
2022/02/09 16:06:28;;;;;;;4.47;3.67;;;12.80;99.90;;;;;;5077519;28;20545;-72
2022/02/09 16:08:44;;;;;;;3.77;3.47;;;12.70;99.90;;;;;;5073481;28;20693;-71
2022/02/09 16:22:23;;;;;;;3.67;3.03;;;12.20;99.90;;;;;;5041461;28;20598;-73
2022/02/09 16:46:57;;;;;;;3.40;2.87;;;11.30;99.90;;;;;;5075961;28;20577;-73
2022/02/09 16:49:52;;;;;;;2.88;2.53;;;11.30;99.90;;;;;;5075798;28;20727;-73
2022/02/09 16:52:24;;;;;;;7.30;3.53;;;11.20;99.90;;;;;;5075115;28;20621;-73
2022/02/09 17:18:56;;;;;;;5.55;4.03;;;10.40;99.90;;;;;;5057587;28;20200;-74
2022/02/09 17:21:26;;;;;;;7.57;4.20;;;10.30;99.90;;;;;;5075096;28;20631;-73
2022/02/09 17:23:57;;;;;;;6.72;3.15;;;10.30;99.90;;;;;;5075392;28;20613;-74
2022/02/09 17:26:25;;;;;;;3.50;3.08;;;10.20;99.90;;;;;;5076143;28;20184;-73
2022/02/09 17:29:33;;;;;;;4.18;3.28;;;10.20;99.90;;;;;;5075485;28;20202;-73
2022/02/09 17:31:54;;;;;;;5.95;3.40;;;10.10;99.90;;;;;;5075517;28;20200;-74
2022/02/09 17:53:23;;;;;;;7.53;3.60;;;10.00;99.90;;;;;;5075941;28;20234;-74
2022/02/09 17:53:25;;;;;;;7.97;4.13;;;9.80;99.90;;;;;;5079127;28;20267;-75
2022/02/09 17:56:00;;;;;;;6.20;3.97;;;9.80;99.90;;;;;;5062983;28;20714;-74
2022/02/09 17:58:31;;;;;;;4.55;4.18;;;9.70;99.90;;;;;;5078858;28;20207;-75
2022/02/09 18:01:00;;;;;;;5.90;5.20;;;9.60;99.90;;;;;;5061760;28;20322;-74
2022/02/09 18:03:28;;;;;;;7.82;4.75;;;9.50;99.90;;;;;;5079776;28;20283;-74
2022/02/09 18:06:05;;;;;;;9.80;8.90;;;9.30;99.90;;;;;;5079332;28;20226;-74
2022/02/09 18:08:41;;;;;;;8.07;7.28;;;9.20;99.90;;;;;;5078343;28;20179;-75
2022/02/09 18:14:57;;;;;;;6.05;5.45;;;8.90;99.90;;;;;;5077670;28;20635;-75
2022/02/09 18:30:18;;;;;;;7.45;4.65;;;8.40;99.90;;;;;;5078226;28;20337;-74
2022/02/09 18:33:08;;;;;;;8.13;5.93;;;8.30;99.90;;;;;;5077319;28;20200;-75
2022/02/09 18:39:06;;;;;;;12.93;8.02;;;8.10;99.90;;;;;;5079323;28;20183;-75
2022/02/09 18:44:20;;;;;;;15.93;11.82;;;7.80;99.90;;;;;;5078340;28;20279;-74
2022/02/09 18:58:10;;;;;;;18.40;13.18;;;7.70;99.90;;;;;;5080945;28;20184;-74
2022/02/09 19:02:56;;;;;;;15.25;7.40;;;7.50;99.90;;;;;;5083152;28;20267;-75
2022/02/09 19:16:29;;;;;;;15.95;9.45;;;7.30;99.90;;;;;;5084089;28;20180;-74
2022/02/09 19:32:31;;;;;;;7.80;6.25;;;6.80;99.90;;;;;;5083989;28;20196;-74
2022/02/09 19:48:43;;;;;;;47.20;22.85;;;6.20;99.90;;;;;;5084581;28;20672;-74
2022/02/09 19:52:06;;;;;;;28.65;15.73;;;6.10;99.90;;;;;;5084026;28;20211;-75
2022/02/09 19:56:46;;;;;;;11.60;8.70;;;6.00;99.90;;;;;;5084075;28;20188;-74
2022/02/09 19:59:18;;;;;;;10.35;9.20;;;6.10;99.90;;;;;;5084605;28;20550;-74
2022/02/09 20:01:45;;;;;;;19.83;12.55;;;6.10;99.90;;;;;;5083135;28;20240;-74
2022/02/09 20:04:14;;;;;;;22.40;14.77;;;6.10;99.90;;;;;;5083275;28;20298;-74
2022/02/09 20:06:43;;;;;;;14.18;10.43;;;6.10;99.90;;;;;;5083597;28;20306;-75
2022/02/09 20:09:10;;;;;;;18.33;12.23;;;6.00;99.90;;;;;;5085409;28;20200;-73
2022/02/09 20:11:38;;;;;;;11.75;8.52;;;6.00;99.90;;;;;;5083058;28;20659;-75
2022/02/09 20:14:05;;;;;;;12.85;8.05;;;6.00;99.90;;;;;;5082336;28;20203;-75
2022/02/09 20:16:31;;;;;;;11.88;8.30;;;6.00;99.90;;;;;;5084382;28;20207;-74
2022/02/09 20:18:58;;;;;;;11.25;8.40;;;5.90;99.90;;;;;;5081849;28;20211;-74
2022/02/09 20:21:27;;;;;;;25.55;13.60;;;5.80;99.90;;;;;;5082897;28;20675;-74
2022/02/09 20:23:54;;;;;;;11.20;7.78;;;5.60;99.90;;;;;;5082377;28;20219;-74
2022/02/09 20:26:22;;;;;;;12.93;11.18;;;5.50;99.90;;;;;;5080553;28;20718;-75
2022/02/09 20:29:12;;;;;;;11.00;8.25;;;5.60;99.90;;;;;;5082044;28;20255;-75
2022/02/09 20:32:27;;;;;;;7.50;5.93;;;5.60;99.90;;;;;;5082434;28;20192;-74
2022/02/09 20:34:36;;;;;;;19.98;12.85;;;5.60;99.90;;;;;;5081563;28;20210;-74
2022/02/09 20:37:09;;;;;;;20.33;14.90;;;5.50;99.90;;;;;;5082342;28;20207;-74
2022/02/09 20:39:44;;;;;;;12.88;8.57;;;5.50;99.90;;;;;;5082326;28;20238;-74
2022/02/09 20:42:15;;;;;;;10.23;7.85;;;5.40;99.90;;;;;;5080721;28;20204;-74
2022/02/09 20:44:50;;;;;;;30.30;16.05;;;5.40;99.90;;;;;;5081025;28;20212;-74
2022/02/09 20:47:17;;;;;;;12.52;9.20;;;5.40;99.90;;;;;;5080852;28;20287;-75
2022/02/09 20:49:43;;;;;;;11.30;7.68;;;5.40;99.90;;;;;;5063479;28;20207;-75
2022/02/09 20:52:13;;;;;;;26.02;16.58;;;5.40;99.90;;;;;;5080447;28;20204;-75
2022/02/09 20:54:40;;;;;;;12.45;9.88;;;5.30;99.90;;;;;;5081328;28;20264;-74
2022/02/09 20:57:08;;;;;;;15.52;8.82;;;5.20;99.90;;;;;;5083196;28;20204;-75
2022/02/09 20:59:39;;;;;;;9.52;6.65;;;5.20;99.90;;;;;;5082554;28;20666;-74
2022/02/09 21:02:30;;;;;;;22.73;7.30;;;5.20;99.90;;;;;;5081625;28;20240;-73
2022/02/09 21:05:02;;;;;;;7.53;5.72;;;5.10;99.90;;;;;;5081827;28;20211;-73
2022/02/09 21:07:39;;;;;;;6.50;5.40;;;5.10;99.90;;;;;;5082792;28;20227;-74
2022/02/09 21:10:25;;;;;;;9.85;6.00;;;5.10;99.90;;;;;;5080602;28;20278;-73
2022/02/09 21:12:57;;;;;;;22.50;10.30;;;5.00;99.90;;;;;;5081693;28;20271;-75
2022/02/09 21:23:49;;;;;;;7.25;5.45;;;4.60;99.90;;;;;;5080888;28;20569;-73
2022/02/09 21:45:31;;;;;;;10.05;5.22;;;4.40;99.90;;;;;;5081076;28;20224;-74
2022/02/09 21:58:42;;;;;;;21.77;15.50;;;4.40;99.90;;;;;;5047593;28;20200;-74
2022/02/09 22:27:46;;;;;;;15.18;6.07;;;3.40;99.90;;;;;;5076163;28;20267;-74
2022/02/09 22:47:20;;;;;;;6.95;6.07;;;3.10;99.90;;;;;;5076301;28;20188;-75
2022/02/09 22:56:54;;;;;;;7.65;6.50;;;2.70;99.90;;;;;;5075419;28;20184;-74
2022/02/09 22:59:31;;;;;;;11.45;8.07;;;2.60;99.90;;;;;;5075870;28;20203;-74
2022/02/09 23:02:06;;;;;;;11.55;7.47;;;2.70;99.90;;;;;;5075199;28;20231;-74
2022/02/09 23:04:39;;;;;;;14.32;8.27;;;2.70;99.90;;;;;;5075545;28;20681;-74
2022/02/09 23:07:27;;;;;;;11.65;9.73;;;2.70;99.90;;;;;;5075682;28;20586;-74
2022/02/09 23:12:36;;;;;;;12.55;8.40;;;2.70;99.90;;;;;;5075357;28;20181;-74
